createdAt,value
2023-05-05T00:01:08.715Z,101394.13
2023-05-05T00:03:35.913Z,101390.84
2023-05-05T00:06:03.084Z,101405.59
2023-05-05T00:08:29.952Z,101403.97
2023-05-05T00:10:57.446Z,101404.81
2023-05-05T00:13:24.435Z,101402.91
2023-05-05T00:15:52.466Z,101409.56
2023-05-05T00:18:19.864Z,101403.38
2023-05-05T00:20:47.328Z,101415.06
2023-05-05T00:23:15.534Z,101412.69
2023-05-05T00:25:41.992Z,101413.00
2023-05-05T00:28:08.567Z,101421.06
2023-05-05T00:30:37.298Z,101410.25
2023-05-05T00:33:04.048Z,101416.09
2023-05-05T00:35:30.604Z,101418.84
2023-05-05T00:37:57.128Z,101415.00
2023-05-05T00:40:25.023Z,101419.75
2023-05-05T00:42:51.644Z,101420.59
2023-05-05T00:45:19.924Z,101411.44
2023-05-05T00:47:49.038Z,101411.19
2023-05-05T00:50:26.927Z,101406.47
2023-05-05T00:52:56.095Z,101413.69
2023-05-05T00:55:22.689Z,101420.59
2023-05-05T00:57:49.919Z,101420.03
2023-05-05T01:00:16.869Z,101430.84
2023-05-05T01:02:44.200Z,101420.91
2023-05-05T01:05:13.206Z,101422.00
2023-05-05T01:07:45.742Z,101428.13
2023-05-05T01:10:20.364Z,101426.44
2023-05-05T01:13:14.958Z,101420.09
2023-05-05T01:15:51.850Z,101429.84
2023-05-05T01:18:40.178Z,101428.44
2023-05-05T01:21:43.122Z,101431.22
2023-05-05T01:24:38.922Z,101442.56
2023-05-05T01:27:20.384Z,101447.00
2023-05-05T01:30:10.565Z,101439.00
2023-05-05T01:32:45.835Z,101430.97
2023-05-05T01:35:18.141Z,101427.09
2023-05-05T01:37:52.128Z,101417.41
2023-05-05T01:40:26.742Z,101409.38
2023-05-05T01:42:55.501Z,101407.69
2023-05-05T01:45:26.341Z,101412.69
2023-05-05T01:47:55.795Z,101412.13
2023-05-05T01:50:24.580Z,101427.09
2023-05-05T01:52:52.635Z,101433.75
2023-05-05T01:55:21.555Z,101426.56
2023-05-05T01:57:49.934Z,101428.50
2023-05-05T02:00:19.410Z,101424.63
2023-05-05T02:02:49.171Z,101420.22
2023-05-05T02:05:19.196Z,101416.34
2023-05-05T02:07:46.240Z,101423.50
2023-05-05T02:10:13.688Z,101427.66
2023-05-05T02:12:42.682Z,101432.66
2023-05-05T02:15:10.374Z,101431.56
2023-05-05T02:17:40.622Z,101433.78
2023-05-05T02:20:09.361Z,101424.66
2023-05-05T02:22:36.079Z,101427.13
2023-05-05T02:25:03.334Z,101432.66
2023-05-05T02:27:32.573Z,101437.59
2023-05-05T02:30:07.086Z,101444.81
2023-05-05T02:32:39.449Z,101455.31
2023-05-05T02:35:36.427Z,101443.44
2023-05-05T02:38:06.090Z,101450.06
2023-05-05T02:40:40.682Z,101452.56
2023-05-05T02:43:10.865Z,101452.53
2023-05-05T02:45:38.324Z,101455.06
2023-05-05T02:48:05.977Z,101458.34
2023-05-05T02:50:36.991Z,101461.94
2023-05-05T02:53:25.180Z,101471.06
2023-05-05T02:55:54.396Z,101476.31
2023-05-05T02:58:34.589Z,101468.00
2023-05-05T03:01:25.407Z,101470.72
2023-05-05T03:04:03.722Z,101469.91
2023-05-05T03:06:39.346Z,101472.13
2023-05-05T03:09:27.649Z,101463.00
2023-05-05T03:12:10.123Z,101459.69
2023-05-05T03:14:55.356Z,101459.13
2023-05-05T03:17:24.841Z,101453.59
2023-05-05T03:19:52.160Z,101463.28
2023-05-05T03:22:19.596Z,101466.84
2023-05-05T03:24:51.390Z,101462.97
2023-05-05T03:27:21.699Z,101470.47
2023-05-05T03:29:48.212Z,101470.72
2023-05-05T03:32:15.841Z,101473.47
2023-05-05T03:34:43.384Z,101470.16
2023-05-05T03:37:09.888Z,101474.59
2023-05-05T03:39:38.261Z,101469.03
2023-05-05T03:42:05.878Z,101473.97
2023-05-05T03:44:35.261Z,101475.59
2023-05-05T03:47:01.815Z,101474.50
2023-05-05T03:49:30.449Z,101478.31
2023-05-05T03:51:57.594Z,101482.50
2023-05-05T03:54:24.214Z,101491.03
2023-05-05T03:56:51.489Z,101489.38
2023-05-05T03:59:18.069Z,101488.22
2023-05-05T04:01:46.560Z,101487.94
2023-05-05T04:04:13.331Z,101497.63
2023-05-05T04:06:40.718Z,101499.53
2023-05-05T04:09:07.811Z,101489.84
2023-05-05T04:11:35.392Z,101496.13
2023-05-05T04:14:01.978Z,101502.25
2023-05-05T04:16:30.990Z,101508.59
2023-05-05T04:18:58.622Z,101506.41
2023-05-05T04:21:25.286Z,101504.47
2023-05-05T04:23:52.328Z,101508.31
2023-05-05T04:26:20.826Z,101519.03
2023-05-05T04:28:47.395Z,101512.06
2023-05-05T04:31:15.718Z,101514.03
2023-05-05T04:33:43.743Z,101514.03
2023-05-05T04:36:11.037Z,101520.94
2023-05-05T04:38:37.755Z,101523.41
2023-05-05T04:41:06.447Z,101517.59
2023-05-05T04:43:33.984Z,101513.69
2023-05-05T04:46:00.866Z,101515.06
2023-05-05T04:48:30.874Z,101519.75
2023-05-05T04:50:57.402Z,101519.75
2023-05-05T04:53:23.934Z,101523.09
2023-05-05T04:55:50.628Z,101529.47
2023-05-05T04:58:17.841Z,101526.69
2023-05-05T05:00:45.240Z,101526.69
2023-05-05T05:03:12.105Z,101519.41
2023-05-05T05:05:38.690Z,101523.31
2023-05-05T05:08:05.577Z,101515.63
2023-05-05T05:10:32.140Z,101525.81
2023-05-05T05:12:58.761Z,101517.78
2023-05-05T05:15:25.650Z,101511.47
2023-05-05T05:17:52.261Z,101507.78
2023-05-05T05:20:19.012Z,101510.00
2023-05-05T05:22:46.373Z,101501.72
2023-05-05T05:25:16.989Z,101508.66
2023-05-05T05:27:44.144Z,101513.34
2023-05-05T05:30:11.749Z,101509.50
2023-05-05T05:32:38.550Z,101512.47
2023-05-05T05:35:06.027Z,101513.00
2023-05-05T05:37:37.044Z,101519.63
2023-05-05T05:40:07.548Z,101516.59
2023-05-05T05:42:35.286Z,101514.09
2023-05-05T05:45:03.273Z,101524.63
2023-05-05T05:47:30.433Z,101513.94
2023-05-05T05:49:57.874Z,101529.91
2023-05-05T05:52:24.508Z,101538.19
2023-05-05T05:54:51.389Z,101546.41
2023-05-05T05:57:18.867Z,101554.44
2023-05-05T05:59:45.751Z,101567.69
2023-05-05T06:02:12.427Z,101572.97
2023-05-05T06:04:39.262Z,101573.44
2023-05-05T06:07:06.235Z,101570.94
2023-05-05T06:09:32.764Z,101575.94
2023-05-05T06:11:59.615Z,101583.94
2023-05-05T06:14:26.477Z,101579.88
2023-05-05T06:16:53.688Z,101585.97
2023-05-05T06:19:22.185Z,101585.16
2023-05-05T06:21:48.934Z,101588.44
2023-05-05T06:24:15.436Z,101589.59
2023-05-05T06:26:42.092Z,101593.50
2023-05-05T06:29:10.464Z,101586.88
2023-05-05T06:31:38.415Z,101588.00
2023-05-05T06:34:04.967Z,101589.41
2023-05-05T06:36:32.305Z,101592.22
2023-05-05T06:38:58.910Z,101592.81
2023-05-05T06:41:25.472Z,101595.59
2023-05-05T06:43:51.986Z,101597.84
2023-05-05T06:46:18.625Z,101603.91
2023-05-05T06:48:45.550Z,101599.22
2023-05-05T06:51:12.131Z,101601.97
2023-05-05T06:53:38.629Z,101601.44
2023-05-05T06:56:05.392Z,101600.06
2023-05-05T06:58:32.052Z,101600.88
2023-05-05T07:00:58.613Z,101601.72
2023-05-05T07:03:25.402Z,101604.75
2023-05-05T07:05:53.847Z,101604.75
2023-05-05T07:08:20.369Z,101605.91
2023-05-05T07:10:47.213Z,101609.25
2023-05-05T07:13:16.231Z,101614.78
2023-05-05T07:15:49.132Z,101613.66
2023-05-05T07:18:16.884Z,101607.63
2023-05-05T07:20:46.705Z,101612.56
2023-05-05T07:23:13.282Z,101615.34
2023-05-05T07:25:39.829Z,101618.72
2023-05-05T07:28:06.484Z,101621.78
2023-05-05T07:30:33.023Z,101623.44
2023-05-05T07:32:59.793Z,101616.56
2023-05-05T07:35:26.450Z,101618.25
2023-05-05T07:37:52.988Z,101617.16
2023-05-05T07:40:19.718Z,101608.91
2023-05-05T07:42:47.407Z,101616.66
2023-05-05T07:45:13.924Z,101615.00
2023-05-05T07:47:40.761Z,101609.78
2023-05-05T07:50:08.376Z,101608.97
2023-05-05T07:52:46.661Z,101607.03
2023-05-05T07:55:18.174Z,101605.13
2023-05-05T07:57:44.796Z,101606.81
2023-05-05T08:00:13.270Z,101613.13
2023-05-05T08:02:40.204Z,101604.59
2023-05-05T08:05:07.573Z,101610.69
2023-05-05T08:07:36.434Z,101597.16
2023-05-05T08:10:03.066Z,101598.56
2023-05-05T08:12:29.659Z,101591.66
2023-05-05T08:14:56.172Z,101599.97
2023-05-05T08:17:25.733Z,101597.19
2023-05-05T08:19:52.965Z,101611.06
2023-05-05T08:22:21.298Z,101625.75
2023-05-05T08:24:47.868Z,101617.44
2023-05-05T08:27:14.684Z,101613.88
2023-05-05T08:29:41.201Z,101615.28
2023-05-05T08:32:07.763Z,101610.56
2023-05-05T08:34:34.311Z,101612.22
2023-05-05T08:37:00.872Z,101619.13
2023-05-05T08:39:27.447Z,101623.03
2023-05-05T08:41:53.964Z,101623.56
2023-05-05T08:44:20.599Z,101621.06
2023-05-05T08:46:48.587Z,101617.22
2023-05-05T08:49:17.434Z,101608.59
2023-05-05T08:51:46.018Z,101622.72
2023-05-05T08:54:19.818Z,101620.78
2023-05-05T08:56:49.603Z,101626.06
2023-05-05T08:59:17.293Z,101623.56
2023-05-05T09:01:44.705Z,101618.59
2023-05-05T09:04:11.311Z,101615.84
2023-05-05T09:06:37.931Z,101621.91
2023-05-05T09:09:04.523Z,101613.06
2023-05-05T09:11:33.887Z,101606.97
2023-05-05T09:14:01.730Z,101599.50
2023-05-05T09:16:28.240Z,101615.28
2023-05-05T09:19:02.472Z,101618.31
2023-05-05T09:21:29.414Z,101624.69
2023-05-05T09:24:12.699Z,101636.03
2023-05-05T09:26:47.728Z,101628.84
2023-05-05T09:29:21.452Z,101622.47
2023-05-05T09:32:05.503Z,101629.09
2023-05-05T09:34:34.941Z,101635.47
2023-05-05T09:37:01.649Z,101633.00
2023-05-05T09:39:28.316Z,101636.88
2023-05-05T09:41:54.948Z,101630.53
2023-05-05T09:44:35.252Z,101625.25
2023-05-05T09:47:03.772Z,101626.63
2023-05-05T09:49:31.861Z,101621.91
2023-05-05T09:51:58.465Z,101624.97
2023-05-05T09:54:29.762Z,101620.53
2023-05-05T09:56:57.268Z,101618.31
2023-05-05T09:59:24.389Z,101628.88
2023-05-05T10:01:51.622Z,101620.00
2023-05-05T10:04:29.573Z,101620.25
2023-05-05T10:06:58.051Z,101617.50
2023-05-05T10:09:25.950Z,101626.38
2023-05-05T10:11:53.862Z,101614.72
2023-05-05T10:14:20.790Z,101612.53
2023-05-05T10:16:50.534Z,101617.22
2023-05-05T10:19:19.550Z,101621.09
2023-05-05T10:21:51.178Z,101615.81
2023-05-05T10:24:22.625Z,101623.31
2023-05-05T10:26:50.428Z,101625.25
2023-05-05T10:29:40.024Z,101633.53
2023-05-05T10:32:53.564Z,101632.16
2023-05-05T10:35:23.020Z,101624.66
2023-05-05T10:37:49.960Z,101629.38
2023-05-05T10:40:17.832Z,101635.16
2023-05-05T10:42:45.438Z,101637.88
2023-05-05T10:45:12.306Z,101641.97
2023-05-05T10:47:40.297Z,101644.38
2023-05-05T10:50:25.993Z,101657.09
2023-05-05T10:53:07.615Z,101663.72
2023-05-05T10:55:46.310Z,101659.47
2023-05-05T10:58:55.530Z,101661.97
2023-05-05T11:01:29.771Z,101659.69
2023-05-05T11:04:19.240Z,101658.56
2023-05-05T11:07:14.736Z,101660.16
2023-05-05T11:09:56.025Z,101661.97
2023-05-05T11:12:22.731Z,101664.34
2023-05-05T11:15:27.505Z,101672.06
2023-05-05T11:17:57.699Z,101673.72
2023-05-05T11:20:36.862Z,101674.09
2023-05-05T11:23:03.424Z,101680.03
2023-05-05T11:25:42.036Z,101679.06
2023-05-05T11:28:16.960Z,101670.63
2023-05-05T11:30:59.230Z,101663.84
2023-05-05T11:33:35.950Z,101670.19
2023-05-05T11:36:06.777Z,101670.41
2023-05-05T11:38:36.277Z,101675.91
2023-05-05T11:41:17.274Z,101676.25
2023-05-05T11:43:43.862Z,101676.75
2023-05-05T11:46:15.469Z,101682.59
2023-05-05T11:48:48.455Z,101676.06
2023-05-05T11:51:16.836Z,101679.97
2023-05-05T11:53:48.337Z,101670.78
2023-05-05T11:56:24.866Z,101657.63
2023-05-05T11:59:10.585Z,101658.47
2023-05-05T12:01:41.359Z,101652.66
2023-05-05T12:04:15.287Z,101659.91
2023-05-05T12:06:42.618Z,101644.53
2023-05-05T12:09:20.995Z,101655.84
2023-05-05T12:11:50.464Z,101658.88
2023-05-05T12:14:16.947Z,101661.44
2023-05-05T12:17:02.543Z,101660.44
2023-05-05T12:19:32.982Z,101656.84
2023-05-05T12:22:04.252Z,101646.00
2023-05-05T12:24:30.866Z,101641.06
2023-05-05T12:27:10.713Z,101644.97
2023-05-05T12:29:37.719Z,101635.75
2023-05-05T12:32:04.482Z,101647.47
2023-05-05T12:34:32.119Z,101646.69
2023-05-05T12:36:58.878Z,101642.47
2023-05-05T12:39:35.417Z,101647.78
2023-05-05T12:42:03.582Z,101637.47
2023-05-05T12:44:39.813Z,101645.16
2023-05-05T12:47:07.228Z,101635.75
2023-05-05T12:49:51.245Z,101641.81
2023-05-05T12:52:18.365Z,101634.13
2023-05-05T12:54:58.810Z,101642.16
2023-05-05T12:57:26.089Z,101647.06
2023-05-05T12:59:53.337Z,101652.94
2023-05-05T13:02:20.717Z,101657.81
2023-05-05T13:04:52.355Z,101644.13
2023-05-05T13:07:20.987Z,101649.53
2023-05-05T13:09:49.228Z,101655.75
2023-05-05T13:12:17.828Z,101656.25
2023-05-05T13:14:44.949Z,101665.09
2023-05-05T13:17:11.729Z,101663.00
2023-05-05T13:19:42.453Z,101668.28
2023-05-05T13:22:13.150Z,101677.63
2023-05-05T13:24:50.728Z,101702.06
2023-05-05T13:27:18.839Z,101695.16
2023-05-05T13:29:45.374Z,101695.72
2023-05-05T13:32:11.944Z,101706.16
2023-05-05T13:34:39.263Z,101704.38
2023-05-05T13:37:06.156Z,101689.34
2023-05-05T13:39:32.683Z,101700.69
2023-05-05T13:41:59.286Z,101692.69
2023-05-05T13:44:25.899Z,101688.41
2023-05-05T13:46:52.552Z,101688.16
2023-05-05T13:49:20.038Z,101687.97
2023-05-05T13:51:47.036Z,101673.94
2023-05-05T13:54:13.830Z,101675.41
2023-05-05T13:56:40.568Z,101673.72
2023-05-05T13:59:07.184Z,101661.63
2023-05-05T14:01:33.831Z,101650.78
2023-05-05T14:04:02.806Z,101648.94
2023-05-05T14:06:31.251Z,101643.44
2023-05-05T14:08:57.854Z,101646.75
2023-05-05T14:11:24.405Z,101635.78
2023-05-05T14:13:52.004Z,101640.69
2023-05-05T14:16:18.858Z,101629.94
2023-05-05T14:18:45.616Z,101627.50
2023-05-05T14:21:12.273Z,101634.00
2023-05-05T14:23:38.852Z,101631.38
2023-05-05T14:26:05.449Z,101644.03
2023-05-05T14:28:31.967Z,101640.72
2023-05-05T14:30:58.489Z,101637.34
2023-05-05T14:33:25.488Z,101631.38
2023-05-05T14:35:52.115Z,101628.59
2023-05-05T14:38:18.641Z,101621.41
2023-05-05T14:40:45.314Z,101620.47
2023-05-05T14:43:11.888Z,101624.31
2023-05-05T14:45:38.437Z,101617.41
2023-05-05T14:48:05.071Z,101614.41
2023-05-05T14:50:31.647Z,101603.41
2023-05-05T14:52:58.220Z,101592.44
2023-05-05T14:55:25.026Z,101595.75
2023-05-05T14:57:51.899Z,101590.34
2023-05-05T15:00:18.615Z,101597.31
2023-05-05T15:02:45.490Z,101594.06
2023-05-05T15:05:12.345Z,101592.47
2023-05-05T15:07:40.130Z,101601.56
2023-05-05T15:10:07.593Z,101611.47
2023-05-05T15:12:34.351Z,101616.75
2023-05-05T15:15:00.978Z,101610.94
2023-05-05T15:17:27.637Z,101604.59
2023-05-05T15:19:54.259Z,101596.06
2023-05-05T15:22:20.780Z,101603.81
2023-05-05T15:24:47.301Z,101606.50
2023-05-05T15:27:14.123Z,101592.41
2023-05-05T15:29:40.653Z,101598.22
2023-05-05T15:32:07.401Z,101599.91
2023-05-05T15:34:34.077Z,101610.03
2023-05-05T15:37:00.613Z,101603.69
2023-05-05T15:39:27.100Z,101615.31
2023-05-05T15:41:53.676Z,101597.13
2023-05-05T15:44:20.143Z,101596.84
2023-05-05T15:49:13.322Z,101589.16
2023-05-05T15:51:39.874Z,101587.25
2023-05-05T15:54:06.553Z,101586.41
2023-05-05T15:56:33.690Z,101593.41
2023-05-05T15:59:00.324Z,101576.88
2023-05-05T16:01:26.930Z,101586.53
2023-05-05T16:03:53.467Z,101575.50
2023-05-05T16:06:19.979Z,101578.00
2023-05-05T16:08:47.717Z,101574.13
2023-05-05T16:11:14.409Z,101574.66
2023-05-05T16:13:42.391Z,101572.78
2023-05-05T16:16:08.964Z,101570.19
2023-05-05T16:18:35.501Z,101577.81
2023-05-05T16:21:02.620Z,101576.28
2023-05-05T16:23:29.104Z,101579.69
2023-05-05T16:25:55.637Z,101574.75
2023-05-05T16:28:22.301Z,101578.63
2023-05-05T16:30:48.820Z,101589.94
2023-05-05T16:33:15.450Z,101579.69
2023-05-05T16:35:45.721Z,101586.63
2023-05-05T16:38:13.117Z,101580.84
2023-05-05T16:40:40.139Z,101579.81
2023-05-05T16:43:06.636Z,101573.78
2023-05-05T16:45:33.216Z,101575.69
2023-05-05T16:47:59.834Z,101580.13
2023-05-05T16:50:26.646Z,101580.41
2023-05-05T16:52:53.126Z,101589.81
2023-05-05T16:55:19.758Z,101587.59
2023-05-05T16:57:47.203Z,101587.84
2023-05-05T17:00:14.472Z,101573.75
2023-05-05T17:02:41.124Z,101577.31
2023-05-05T17:05:08.285Z,101574.28
2023-05-05T17:07:35.036Z,101575.91
2023-05-05T17:10:01.693Z,101578.19
2023-05-05T17:12:28.331Z,101570.38
2023-05-05T17:14:54.906Z,101577.88
2023-05-05T17:17:21.410Z,101588.66
2023-05-05T17:19:47.907Z,101578.97
2023-05-05T17:22:14.390Z,101577.88
2023-05-05T17:24:40.984Z,101581.22
2023-05-05T17:27:07.575Z,101585.38
2023-05-05T17:29:39.320Z,101581.22
2023-05-05T17:32:06.049Z,101572.66
2023-05-05T17:34:32.679Z,101573.50
2023-05-05T17:36:59.217Z,101577.66
2023-05-05T17:39:25.821Z,101569.88
2023-05-05T17:41:52.352Z,101570.69
2023-05-05T17:44:18.809Z,101574.03
2023-05-05T17:46:45.561Z,101573.94
2023-05-05T17:49:12.268Z,101571.72
2023-05-05T17:51:38.878Z,101571.25
2023-05-05T17:54:05.595Z,101569.25
2023-05-05T17:56:32.063Z,101562.84
2023-05-05T17:58:58.546Z,101572.56
2023-05-05T18:01:26.691Z,101564.78
2023-05-05T18:03:53.342Z,101571.16
2023-05-05T18:06:19.932Z,101571.91
2023-05-05T18:08:46.613Z,101577.44
2023-05-05T18:11:13.190Z,101575.75
2023-05-05T18:13:39.819Z,101570.25
2023-05-05T18:16:06.739Z,101577.41
2023-05-05T18:18:33.380Z,101580.47
2023-05-05T18:21:00.041Z,101581.81
2023-05-05T18:23:26.633Z,101585.13
2023-05-05T18:25:53.167Z,101589.56
2023-05-05T18:28:20.306Z,101583.47
2023-05-05T18:30:46.824Z,101587.06
2023-05-05T18:33:13.369Z,101593.13
2023-05-05T18:35:39.947Z,101594.50
2023-05-05T18:38:06.465Z,101591.72
2023-05-05T18:40:32.968Z,101596.16
2023-05-05T18:43:00.601Z,101594.50
2023-05-05T18:45:27.211Z,101593.69
2023-05-05T18:47:53.854Z,101600.53
2023-05-05T18:50:20.349Z,101597.16
2023-05-05T18:52:46.905Z,101606.31
2023-05-05T18:55:13.612Z,101606.53
2023-05-05T18:57:40.375Z,101601.84
2023-05-05T19:00:07.435Z,101617.00
2023-05-05T19:02:33.969Z,101616.72
2023-05-05T19:05:00.651Z,101617.53
2023-05-05T19:07:34.936Z,101618.91
2023-05-05T19:10:04.142Z,101617.00
2023-05-05T19:12:30.634Z,101615.28
2023-05-05T19:14:57.120Z,101624.66
2023-05-05T19:17:23.723Z,101622.97
2023-05-05T19:19:50.606Z,101627.66
2023-05-05T19:22:22.876Z,101635.09
2023-05-05T19:24:49.376Z,101633.44
2023-05-05T19:27:17.105Z,101635.59
2023-05-05T19:29:44.064Z,101635.31
2023-05-05T19:32:10.886Z,101631.41
2023-05-05T19:34:37.549Z,101629.19
2023-05-05T19:37:04.106Z,101642.69
2023-05-05T19:39:31.210Z,101636.06
2023-05-05T19:41:57.725Z,101632.44
2023-05-05T19:44:24.289Z,101638.47
2023-05-05T19:46:52.518Z,101631.03
2023-05-05T19:49:19.124Z,101636.88
2023-05-05T19:51:47.570Z,101639.00
2023-05-05T19:54:14.147Z,101632.59
2023-05-05T19:56:40.757Z,101641.16
2023-05-05T19:59:07.394Z,101653.00
2023-05-05T20:01:35.057Z,101654.13
2023-05-05T20:04:03.151Z,101649.13
2023-05-05T20:06:29.657Z,101645.22
2023-05-05T20:08:56.186Z,101654.31
2023-05-05T20:11:22.950Z,101652.38
2023-05-05T20:13:49.808Z,101652.88
2023-05-05T20:16:16.532Z,101654.78
2023-05-05T20:18:43.558Z,101647.63
2023-05-05T20:21:10.208Z,101647.81
2023-05-05T20:23:37.096Z,101645.59
2023-05-05T20:26:03.685Z,101650.56
2023-05-05T20:28:31.707Z,101645.50
2023-05-05T20:30:58.421Z,101648.25
2023-05-05T20:33:24.961Z,101645.50
2023-05-05T20:35:51.474Z,101645.19
2023-05-05T20:38:18.010Z,101652.03
2023-05-05T20:40:44.542Z,101644.38
2023-05-05T20:43:11.117Z,101655.41
2023-05-05T20:45:37.753Z,101644.28
2023-05-05T20:48:05.458Z,101638.22
2023-05-05T20:50:32.164Z,101647.28
2023-05-05T20:52:58.843Z,101637.25
2023-05-05T20:55:25.534Z,101638.63
2023-05-05T20:57:52.058Z,101634.50
2023-05-05T21:00:18.595Z,101630.94
2023-05-05T21:02:45.289Z,101635.88
2023-05-05T21:05:12.509Z,101633.94
2023-05-05T21:07:39.067Z,101642.63
2023-05-05T21:10:06.199Z,101644.00
2023-05-05T21:12:34.019Z,101636.81
2023-05-05T21:15:00.696Z,101648.69
2023-05-05T21:17:27.677Z,101646.75
2023-05-05T21:19:55.061Z,101626.88
2023-05-05T21:22:21.855Z,101643.44
2023-05-05T21:24:48.488Z,101634.84
2023-05-05T21:27:15.105Z,101634.25
2023-05-05T21:29:41.637Z,101630.94
2023-05-05T21:32:10.287Z,101632.03
2023-05-05T21:34:37.496Z,101622.84
2023-05-05T21:37:04.925Z,101623.44
2023-05-05T21:39:32.974Z,101625.59
2023-05-05T21:42:00.567Z,101623.94
2023-05-05T21:44:28.065Z,101620.69
2023-05-05T21:46:55.026Z,101628.59
2023-05-05T21:49:21.648Z,101625.25
2023-05-05T21:51:48.138Z,101634.06
2023-05-05T21:54:14.661Z,101633.50
2023-05-05T21:56:41.177Z,101630.16
2023-05-05T21:59:07.676Z,101629.06
2023-05-05T22:01:34.856Z,101627.91
2023-05-05T22:04:01.591Z,101630.91
2023-05-05T22:06:28.169Z,101629.00
2023-05-05T22:08:54.749Z,101626.50
2023-05-05T22:11:21.320Z,101632.84
2023-05-05T22:13:47.917Z,101631.44
2023-05-05T22:16:17.413Z,101631.13
2023-05-05T22:18:44.341Z,101630.66
2023-05-05T22:21:10.962Z,101628.47
2023-05-05T22:23:38.880Z,101622.97
2023-05-05T22:26:05.369Z,101620.72
2023-05-05T22:28:31.882Z,101624.06
2023-05-05T22:30:58.375Z,101616.06
2023-05-05T22:33:24.996Z,101608.63
2023-05-05T22:35:52.013Z,101610.78
2023-05-05T22:38:18.638Z,101608.88
2023-05-05T22:40:45.799Z,101604.13
2023-05-05T22:43:12.338Z,101608.00
2023-05-05T22:45:39.030Z,101620.34
2023-05-05T22:48:05.904Z,101614.78
2023-05-05T22:50:32.528Z,101608.44
2023-05-05T22:52:59.063Z,101610.03
2023-05-05T22:55:26.686Z,101604.78
2023-05-05T22:57:53.253Z,101598.19
2023-05-05T23:00:19.786Z,101606.69
2023-05-05T23:02:46.330Z,101600.88
2023-05-05T23:05:13.050Z,101600.03
2023-05-05T23:07:39.667Z,101598.06
2023-05-05T23:10:06.659Z,101599.41
2023-05-05T23:12:33.251Z,101602.44
2023-05-05T23:14:59.800Z,101597.09
2023-05-05T23:17:26.336Z,101608.19
2023-05-05T23:19:53.062Z,101608.09
2023-05-05T23:22:19.557Z,101608.69
2023-05-05T23:24:46.107Z,101616.97
2023-05-05T23:27:13.187Z,101612.47
2023-05-05T23:29:39.789Z,101616.88
2023-05-05T23:32:06.407Z,101615.72
2023-05-05T23:34:33.071Z,101617.41
2023-05-05T23:36:59.589Z,101612.34
2023-05-05T23:39:26.131Z,101616.50
2023-05-05T23:41:52.648Z,101611.81
2023-05-05T23:44:19.129Z,101606.00
2023-05-05T23:46:45.791Z,101606.00
2023-05-05T23:49:12.315Z,101603.47
2023-05-05T23:51:38.850Z,101601.84
2023-05-05T23:54:05.421Z,101597.97
2023-05-05T23:56:31.992Z,101602.34
2023-05-05T23:58:58.477Z,101598.16
